Time;durP1;ratioP1;P1;durP2;ratioP2;P2;SDS_P1;SDS_P2;PMS_P1;PMS_P2;Temp;Humidity;BMP_temperature;BMP_pressure;BME280_temperature;BME280_humidity;BME280_pressure;Samples;Min_cycle;Max_cycle;Signal;HPM_P1;HPM_P2
2021/05/27 00:00:23;;;;;;;1.23;0.60;;;;;;;12.90;64.30;99338.34;5075313;28;20299;-80
2021/05/27 00:02:50;;;;;;;1.77;0.70;;;;;;;12.98;64.41;99351.41;5075526;28;20225;-80
2021/05/27 00:05:18;;;;;;;0.80;0.70;;;;;;;12.95;63.85;99354.59;5074671;28;20224;-80
2021/05/27 00:07:45;;;;;;;1.40;0.77;;;;;;;12.90;64.29;99347.25;5075805;28;20562;-79
2021/05/27 00:10:13;;;;;;;1.67;1.03;;;;;;;12.91;64.14;99348.06;5074825;28;20694;-78
2021/05/27 00:12:40;;;;;;;0.80;0.80;;;;;;;12.86;64.42;99339.91;5058821;28;20218;-82
2021/05/27 00:15:09;;;;;;;1.17;0.87;;;;;;;12.88;64.52;99352.03;5059013;28;20236;-80
2021/05/27 00:17:35;;;;;;;1.30;0.70;;;;;;;12.86;64.85;99345.28;5074723;28;20558;-80
2021/05/27 00:20:07;;;;;;;1.73;0.83;;;;;;;12.89;64.89;99350.16;5058564;28;20244;-80
2021/05/27 00:22:34;;;;;;;0.97;0.70;;;;;;;12.87;65.46;99353.13;5075124;28;20532;-78
2021/05/27 00:25:01;;;;;;;2.20;0.90;;;;;;;12.82;65.67;99346.81;5058352;28;20509;-81
2021/05/27 00:27:38;;;;;;;1.70;0.80;;;;;;;12.76;65.68;99340.53;5058860;28;20295;-82
2021/05/27 00:30:06;;;;;;;1.00;0.60;;;;;;;12.84;66.01;99350.88;5071202;28;20245;-79
2021/05/27 00:32:33;;;;;;;1.07;0.90;;;;;;;12.71;66.24;99330.50;5075092;28;20229;-81
2021/05/27 00:34:59;;;;;;;1.93;0.87;;;;;;;12.74;66.41;99345.31;5058460;28;20232;-79
2021/05/27 00:37:26;;;;;;;1.10;0.90;;;;;;;12.73;66.54;99343.72;5044134;28;20653;-77
2021/05/27 00:39:53;;;;;;;0.70;0.70;;;;;;;12.68;66.79;99348.97;5071569;28;20571;-81
2021/05/27 00:42:20;;;;;;;3.33;1.07;;;;;;;12.61;66.65;99321.41;5057737;28;20705;-80
2021/05/27 00:45:12;;;;;;;1.53;0.93;;;;;;;12.75;66.61;99346.94;5074882;28;20596;-81
2021/05/27 00:47:40;;;;;;;0.80;0.80;;;;;;;12.76;67.12;99352.09;5063718;28;20671;-80
2021/05/27 00:50:11;;;;;;;1.73;1.10;;;;;;;12.67;67.60;99337.41;5057224;28;20229;-79
2021/05/27 00:52:38;;;;;;;1.70;1.20;;;;;;;12.70;67.87;99338.78;5046791;28;20232;-79
2021/05/27 00:55:06;;;;;;;3.33;1.00;;;;;;;12.71;67.83;99346.63;5056830;28;20299;-79
2021/05/27 00:57:36;;;;;;;1.37;0.83;;;;;;;12.70;68.05;99350.38;5056532;28;20237;-80
2021/05/27 01:00:11;;;;;;;1.67;0.90;;;;;;;12.64;68.30;99348.66;5073833;28;20307;-78
2021/05/27 01:02:39;;;;;;;1.53;0.80;;;;;;;12.70;68.17;99354.91;5061913;28;20221;-80
2021/05/27 01:05:08;;;;;;;1.00;0.70;;;;;;;12.62;69.17;99352.63;5057872;28;20279;-81
2021/05/27 01:07:35;;;;;;;3.33;1.10;;;;;;;12.59;68.76;99345.03;5046292;28;20226;-80
2021/05/27 01:10:05;;;;;;;1.50;0.63;;;;;;;12.59;68.68;99348.56;5071170;28;20233;-79
2021/05/27 01:12:33;;;;;;;1.00;0.73;;;;;;;12.64;68.92;99351.34;5056124;28;20279;-80
2021/05/27 01:18:16;;;;;;;2.27;0.90;;;;;;;12.58;68.60;99354.16;5015023;28;20259;-82
2021/05/27 01:20:48;;;;;;;1.37;0.87;;;;;;;12.58;68.54;99357.66;4999179;28;20227;-81
2021/05/27 01:23:15;;;;;;;2.57;0.80;;;;;;;12.60;68.48;99368.16;5030791;28;20244;-80
2021/05/27 01:25:50;;;;;;;3.10;0.83;;;;;;;12.55;68.82;99358.13;5059442;28;20221;-83
2021/05/27 01:28:18;;;;;;;1.30;0.80;;;;;;;12.59;68.80;99370.06;5075201;28;20216;-80
2021/05/27 01:31:07;;;;;;;1.40;0.97;;;;;;;12.58;68.54;99364.91;5061889;28;20232;-82
2021/05/27 01:33:37;;;;;;;2.87;1.00;;;;;;;12.58;68.33;99372.97;5043173;28;20278;-80
2021/05/27 01:36:08;;;;;;;2.10;1.03;;;;;;;12.50;67.87;99360.75;5075468;28;20652;-80
2021/05/27 01:38:36;;;;;;;2.07;0.80;;;;;;;12.44;68.30;99360.84;5048526;28;20303;-83
2021/05/27 01:41:07;;;;;;;2.50;1.30;;;;;;;12.43;68.53;99368.09;5060019;28;20298;-80
2021/05/27 01:43:34;;;;;;;5.63;1.70;;;;;;;12.42;68.74;99361.09;5062346;28;20217;-81
2021/05/27 01:46:01;;;;;;;5.23;2.23;;;;;;;12.42;68.57;99365.63;5043660;28;20225;-81
2021/05/27 01:48:28;;;;;;;5.93;2.10;;;;;;;12.36;68.75;99349.41;5078280;28;20224;-81
2021/05/27 01:50:56;;;;;;;6.57;2.23;;;;;;;12.36;68.66;99354.00;5077417;28;20229;-79
2021/05/27 01:53:25;;;;;;;4.93;2.00;;;;;;;12.44;68.67;99374.28;5079057;28;20220;-81
2021/05/27 01:55:54;;;;;;;5.50;1.80;;;;;;;12.39;68.64;99369.63;5060584;28;20232;-83
2021/05/27 01:58:23;;;;;;;5.97;2.27;;;;;;;12.34;68.83;99359.59;5040780;28;20233;-81
2021/05/27 02:00:51;;;;;;;2.30;1.53;;;;;;;12.37;68.50;99369.03;5058518;28;20236;-81
2021/05/27 02:03:25;;;;;;;5.43;1.93;;;;;;;12.42;68.60;99376.38;5072143;28;20281;-80
2021/05/27 02:06:15;;;;;;;4.43;1.90;;;;;;;12.35;68.86;99372.00;5078401;28;20234;-80
2021/05/27 02:11:46;;;;;;;3.73;1.57;;;;;;;12.41;68.94;99380.94;5081491;28;20595;-81
2021/05/27 02:14:19;;;;;;;2.63;1.40;;;;;;;12.35;69.04;99369.28;5079961;28;20246;-82
2021/05/27 02:16:47;;;;;;;1.80;1.10;;;;;;;12.31;69.07;99362.78;5080084;28;20240;-81
2021/05/27 02:19:14;;;;;;;2.67;1.30;;;;;;;12.33;69.34;99370.56;5078956;28;20235;-80
2021/05/27 02:21:45;;;;;;;2.97;1.47;;;;;;;12.32;69.25;99374.31;5079835;28;20251;-81
2021/05/27 02:24:15;;;;;;;3.27;1.40;;;;;;;12.33;69.25;99384.00;5053964;28;20225;-82
2021/05/27 02:27:03;;;;;;;2.70;1.33;;;;;;;12.29;69.68;99382.84;5081304;28;20535;-80
2021/05/27 02:29:34;;;;;;;2.27;1.30;;;;;;;12.28;70.18;99381.22;5081866;28;20252;-81
2021/05/27 02:32:04;;;;;;;1.90;1.30;;;;;;;12.30;70.16;99377.25;5048971;28;20229;-81
2021/05/27 02:34:34;;;;;;;2.60;1.60;;;;;;;12.28;70.55;99379.34;5081520;28;20232;-81
2021/05/27 02:37:02;;;;;;;2.33;1.23;;;;;;;12.26;70.11;99386.84;5081476;28;20259;-81
2021/05/27 02:39:35;;;;;;;2.63;1.40;;;;;;;12.22;70.25;99374.94;5045387;28;20541;-80
2021/05/27 02:42:04;;;;;;;3.03;1.40;;;;;;;12.27;70.33;99388.44;5060653;28;20315;-81
2021/05/27 02:44:32;;;;;;;1.93;1.20;;;;;;;12.22;70.37;99382.19;5071476;28;20260;-82
2021/05/27 02:46:59;;;;;;;2.57;1.20;;;;;;;12.20;70.25;99379.72;5061952;28;20240;-81
2021/05/27 02:49:28;;;;;;;1.67;1.20;;;;;;;12.09;70.39;99363.59;5083006;28;20290;-80
2021/05/27 02:51:59;;;;;;;1.27;1.17;;;;;;;12.13;70.47;99367.47;5087022;28;20251;-80
2021/05/27 02:54:29;;;;;;;3.20;1.00;;;;;;;12.08;70.65;99367.38;5085647;28;20228;-80
2021/05/27 02:56:59;;;;;;;2.17;1.37;;;;;;;12.07;71.21;99371.09;5087408;28;20228;-80
2021/05/27 02:59:32;;;;;;;1.40;1.30;;;;;;;12.08;71.29;99376.25;5087552;28;20270;-80
2021/05/27 03:02:02;;;;;;;3.37;1.40;;;;;;;12.06;71.13;99380.19;5085725;28;20228;-80
2021/05/27 03:04:34;;;;;;;2.03;1.20;;;;;;;12.10;70.95;99379.50;5085014;28;20311;-80
2021/05/27 03:07:01;;;;;;;1.83;1.40;;;;;;;12.02;71.00;99368.28;5086762;28;20220;-81
2021/05/27 03:09:28;;;;;;;1.40;1.20;;;;;;;11.95;71.28;99365.72;5086792;28;20226;-80
2021/05/27 03:11:57;;;;;;;2.57;1.23;;;;;;;11.96;71.50;99370.03;5070802;28;20640;-80
2021/05/27 03:14:28;;;;;;;2.03;1.23;;;;;;;11.98;71.76;99372.50;5087539;28;20566;-81
2021/05/27 03:17:02;;;;;;;3.23;1.50;;;;;;;11.97;71.88;99379.75;5085335;28;20235;-80
2021/05/27 03:19:30;;;;;;;1.93;1.50;;;;;;;12.04;71.79;99383.09;5076988;28;20226;-80
2021/05/27 03:21:58;;;;;;;2.73;1.50;;;;;;;12.00;71.78;99376.56;5033884;28;20305;-80
2021/05/27 03:24:28;;;;;;;2.47;1.40;;;;;;;12.04;71.40;99376.94;5081717;28;20225;-81
2021/05/27 03:26:56;;;;;;;2.27;1.50;;;;;;;12.09;71.30;99385.91;5085888;28;20233;-80
2021/05/27 03:29:27;;;;;;;2.67;1.47;;;;;;;12.17;70.73;99401.69;5085490;28;20296;-80
2021/05/27 03:32:04;;;;;;;3.17;1.60;;;;;;;12.19;70.58;99379.94;5101444;28;20211;-80
2021/05/27 03:34:33;;;;;;;2.10;1.30;;;;;;;12.24;70.47;99377.38;5087466;28;20640;-81
2021/05/27 03:37:02;;;;;;;2.50;1.30;;;;;;;12.44;69.93;99382.34;5087354;28;20237;-80
2021/05/27 03:39:31;;;;;;;2.53;1.50;;;;;;;12.53;69.85;99395.19;5075642;22;20323;-80
2021/05/27 03:42:03;;;;;;;2.37;1.50;;;;;;;12.60;69.50;99393.16;4997551;28;20234;-80
2021/05/27 03:44:33;;;;;;;3.43;1.50;;;;;;;12.65;69.31;99373.63;5019929;28;20238;-82
2021/05/27 03:47:10;;;;;;;2.60;1.50;;;;;;;12.73;69.24;99386.72;5048042;28;20234;-81
2021/05/27 03:49:38;;;;;;;2.87;1.50;;;;;;;12.81;68.48;99397.06;5016532;28;20314;-82
2021/05/27 03:52:10;;;;;;;2.40;1.27;;;;;;;12.80;68.99;99387.38;5026890;28;20223;-81
2021/05/27 03:54:45;;;;;;;2.77;1.40;;;;;;;12.98;67.59;99389.03;5015385;28;20713;-80
2021/05/27 03:57:12;;;;;;;3.90;2.07;;;;;;;13.03;67.21;99394.53;5030685;28;20230;-81
2021/05/27 04:02:50;;;;;;;2.90;1.70;;;;;;;13.37;67.46;99404.31;5036969;28;20233;-81
2021/05/27 04:08:19;;;;;;;4.00;1.93;;;;;;;13.47;67.17;99395.63;5043856;28;20679;-81
2021/05/27 04:10:46;;;;;;;4.90;2.10;;;;;;;13.56;67.00;99392.28;5027759;28;20238;-82
2021/05/27 04:13:14;;;;;;;5.10;2.13;;;;;;;13.57;67.09;99382.31;5000347;28;20302;-83
2021/05/27 04:15:43;;;;;;;4.47;2.17;;;;;;;13.71;66.62;99388.19;4999712;28;20859;-83
2021/05/27 04:18:12;;;;;;;4.47;2.00;;;;;;;13.81;66.70;99396.44;4982686;28;20232;-81
2021/05/27 04:20:48;;;;;;;6.23;2.07;;;;;;;13.76;66.45;99383.72;5009816;28;20580;-83
2021/05/27 04:23:42;;;;;;;3.00;2.27;;;;;;;13.86;66.56;99375.75;5019529;28;20234;-82
2021/05/27 04:26:12;;;;;;;2.93;2.00;;;;;;;14.03;66.21;99383.84;5007170;28;20233;-81
2021/05/27 04:28:40;;;;;;;4.47;2.37;;;;;;;14.10;66.50;99376.38;4994686;28;20631;-79
2021/05/27 04:31:10;;;;;;;2.60;2.10;;;;;;;14.30;65.96;99387.44;4995624;28;20282;-79
2021/05/27 04:33:51;;;;;;;4.70;2.43;;;;;;;14.41;65.01;99381.16;5002521;28;20234;-81
2021/05/27 04:36:18;;;;;;;4.87;2.50;;;;;;;14.59;65.06;99387.28;4988499;28;20232;-80
2021/05/27 04:38:46;;;;;;;3.50;2.10;;;;;;;14.73;64.59;99394.75;4994567;28;20226;-82
2021/05/27 04:41:14;;;;;;;3.97;2.03;;;;;;;14.84;64.35;99388.38;4966557;28;20229;-80
2021/05/27 04:43:41;;;;;;;2.63;1.50;;;;;;;14.93;62.20;99381.47;4998961;28;20224;-78
2021/05/27 04:46:08;;;;;;;3.00;1.10;;;;;;;15.07;60.94;99373.78;4989845;28;20320;-78
2021/05/27 04:48:35;;;;;;;3.83;1.70;;;;;;;15.31;60.71;99379.69;5016131;28;20228;-80
2021/05/27 04:51:02;;;;;;;3.47;1.40;;;;;;;15.52;59.99;99391.53;4995942;28;20229;-79
2021/05/27 04:53:29;;;;;;;1.10;1.00;;;;;;;15.71;58.25;99387.34;4969097;28;20305;-80
2021/05/27 04:55:57;;;;;;;2.47;1.50;;;;;;;15.86;57.83;99390.19;5006571;28;20272;-81
2021/05/27 04:58:25;;;;;;;2.90;1.20;;;;;;;16.15;57.56;99404.94;5002061;28;20254;-81
2021/05/27 05:00:51;;;;;;;2.30;1.03;;;;;;;16.35;56.68;99406.13;4985588;28;20236;-82
2021/05/27 05:03:18;;;;;;;2.73;1.20;;;;;;;16.62;55.66;99406.84;5018013;28;20307;-83
2021/05/27 05:05:45;;;;;;;2.33;1.10;;;;;;;16.81;55.45;99399.88;5013393;28;20560;-84
2021/05/27 05:08:12;;;;;;;1.13;0.70;;;;;;;17.18;53.67;99403.22;4998374;28;20277;-85
2021/05/27 05:10:44;;;;;;;2.17;1.00;;;;;;;17.48;52.58;99399.75;4998830;28;20222;-80
2021/05/27 05:13:11;;;;;;;2.27;0.70;;;;;;;17.59;51.67;99392.44;5001428;28;20226;-82
2021/05/27 05:15:39;;;;;;;1.10;0.80;;;;;;;17.82;50.66;99399.25;4999243;28;20513;-83
2021/05/27 05:18:08;;;;;;;3.13;0.80;;;;;;;17.88;49.57;99392.72;4981820;28;20238;-82
2021/05/27 05:20:39;;;;;;;1.47;0.70;;;;;;;18.07;49.32;99403.81;4979293;28;20215;-83
2021/05/27 05:23:06;;;;;;;1.87;0.80;;;;;;;18.21;49.44;99402.16;5018094;28;20236;-82
2021/05/27 05:25:34;;;;;;;1.10;0.60;;;;;;;18.23;48.54;99395.38;4989591;28;20219;-83
2021/05/27 05:28:02;;;;;;;1.53;0.60;;;;;;;18.28;48.13;99405.41;5002336;28;20342;-83
2021/05/27 05:30:29;;;;;;;1.20;0.70;;;;;;;18.39;47.99;99406.97;4981977;28;20254;-79
2021/05/27 05:32:57;;;;;;;1.43;0.60;;;;;;;18.55;47.99;99397.75;5016820;28;20283;-82
2021/05/27 05:35:25;;;;;;;2.00;0.60;;;;;;;18.70;47.59;99408.53;5004458;28;20227;-82
2021/05/27 05:37:52;;;;;;;1.53;0.60;;;;;;;18.78;47.44;99413.38;4983297;28;20317;-82
2021/05/27 05:40:27;;;;;;;0.50;0.50;;;;;;;18.96;47.93;99420.09;4996223;28;20245;-83
2021/05/27 05:42:55;;;;;;;1.37;0.60;;;;;;;19.11;47.29;99424.63;4980444;28;20535;-81
2021/05/27 05:45:23;;;;;;;0.80;0.80;;;;;;;19.12;45.83;99420.81;4979408;28;20234;-82
2021/05/27 05:47:55;;;;;;;1.10;0.70;;;;;;;19.37;45.20;99428.81;4996307;28;20272;-79
2021/05/27 05:53:20;;;;;;;0.80;0.50;;;;;;;19.55;44.93;99438.25;5009377;28;20587;-82
2021/05/27 05:55:50;;;;;;;0.67;0.50;;;;;;;19.52;44.91;99430.63;4984278;28;20239;-78
2021/05/27 05:58:17;;;;;;;1.03;0.60;;;;;;;19.52;44.03;99436.06;4970290;28;20265;-82
2021/05/27 06:00:44;;;;;;;1.37;0.60;;;;;;;19.19;44.35;99443.03;4977871;28;20219;-84
2021/05/27 06:03:11;;;;;;;2.07;1.20;;;;;;;19.27;45.05;99447.91;5028288;28;20227;-82
2021/05/27 06:05:57;;;;;;;8.20;7.40;;;;;;;19.22;44.56;99434.34;5001787;28;20670;-79
2021/05/27 06:08:42;;;;;;;1.73;1.30;;;;;;;19.26;44.09;99449.81;4976855;28;20234;-81
2021/05/27 06:11:09;;;;;;;1.07;1.00;;;;;;;19.13;44.06;99442.25;4997004;28;20226;-81
2021/05/27 06:13:37;;;;;;;0.53;0.53;;;;;;;19.06;44.21;99452.63;4981808;28;20682;-80
2021/05/27 06:16:06;;;;;;;1.27;0.60;;;;;;;19.00;44.48;99442.88;5000652;28;20525;-79
2021/05/27 06:18:33;;;;;;;0.60;0.50;;;;;;;19.04;44.69;99451.25;5015005;28;20284;-81
2021/05/27 06:21:36;;;;;;;1.60;0.50;;;;;;;18.90;44.16;99451.06;4947987;29;20232;-81
2021/05/27 06:24:11;;;;;;;1.50;0.50;;;;;;;18.92;44.03;99454.31;5008682;28;20229;-81
2021/05/27 06:26:39;;;;;;;0.60;0.40;;;;;;;19.11;43.38;99451.78;4987731;28;20236;-79
2021/05/27 06:29:06;;;;;;;1.40;0.50;;;;;;;19.12;43.11;99445.25;5021230;28;20258;-83
2021/05/27 06:31:33;;;;;;;0.50;0.50;;;;;;;19.24;43.22;99453.88;5021020;28;20256;-81
2021/05/27 06:34:00;;;;;;;1.70;0.30;;;;;;;19.22;42.64;99447.94;4981974;28;20238;-82
2021/05/27 06:36:27;;;;;;;2.83;0.40;;;;;;;19.22;42.49;99448.72;5005643;28;20286;-80
2021/05/27 06:39:00;;;;;;;0.40;0.40;;;;;;;19.33;42.58;99441.31;5004064;28;20432;-79
2021/05/27 06:41:27;;;;;;;1.20;0.50;;;;;;;19.54;42.43;99445.56;5001005;28;20603;-80
2021/05/27 06:43:54;;;;;;;3.03;0.40;;;;;;;19.81;41.07;99452.44;4999343;28;20695;-82
2021/05/27 06:46:21;;;;;;;1.33;0.40;;;;;;;20.08;40.85;99444.59;4979818;28;20251;-84
2021/05/27 06:48:49;;;;;;;0.93;0.50;;;;;;;20.34;40.39;99450.63;4966615;28;20220;-82
2021/05/27 06:51:16;;;;;;;1.03;0.60;;;;;;;20.34;39.57;99445.19;4981125;28;20658;-83
2021/05/27 06:53:42;;;;;;;0.40;0.40;;;;;;;20.49;39.62;99455.91;5011933;28;20242;-78
2021/05/27 06:56:18;;;;;;;1.07;0.60;;;;;;;20.44;39.27;99462.19;4981431;28;20223;-82
2021/05/27 06:58:44;;;;;;;1.63;0.80;;;;;;;20.32;39.20;99459.06;4979031;28;20287;-84
2021/05/27 07:01:11;;;;;;;1.33;0.50;;;;;;;20.39;39.18;99456.03;5000697;28;20315;-82
2021/05/27 07:03:38;;;;;;;0.40;0.40;;;;;;;20.51;38.73;99461.88;4983608;28;20305;-81
2021/05/27 07:06:06;;;;;;;0.40;0.40;;;;;;;20.30;39.52;99469.41;4996411;28;20269;-82
2021/05/27 07:08:33;;;;;;;1.90;0.40;;;;;;;20.27;40.36;99474.59;4979725;28;20279;-84
2021/05/27 07:11:00;;;;;;;0.50;0.50;;;;;;;20.32;39.86;99471.88;4996803;28;20310;-82
2021/05/27 07:13:27;;;;;;;0.70;0.40;;;;;;;20.06;39.44;99477.50;4990679;28;20233;-82
2021/05/27 07:15:54;;;;;;;0.50;0.50;;;;;;;20.00;40.35;99469.69;5000670;28;20242;-83
2021/05/27 07:18:21;;;;;;;0.40;0.40;;;;;;;20.01;40.42;99474.84;5007979;28;20231;-80
2021/05/27 07:20:48;;;;;;;1.73;0.40;;;;;;;20.07;39.73;99475.59;4977391;28;20228;-81
2021/05/27 07:23:16;;;;;;;1.47;0.53;;;;;;;20.05;40.34;99485.97;4971573;28;20532;-83
2021/05/27 07:25:43;;;;;;;1.27;0.57;;;;;;;20.01;40.96;99485.72;5000454;28;20592;-83
2021/05/27 07:28:10;;;;;;;0.80;0.40;;;;;;;20.00;40.82;99475.13;5010594;28;20228;-82
2021/05/27 07:30:37;;;;;;;1.00;0.70;;;;;;;20.40;39.65;99482.94;4964788;28;20229;-84
2021/05/27 07:33:04;;;;;;;5.67;3.80;;;;;;;20.71;39.28;99480.72;5001052;28;20216;-81
2021/05/27 07:35:31;;;;;;;8.90;4.87;;;;;;;21.06;38.36;99477.56;4999902;28;20251;-82
2021/05/27 07:37:59;;;;;;;23.30;15.57;;;;;;;21.21;38.39;99497.56;4997372;28;20572;-81
2021/05/27 07:40:26;;;;;;;1.10;0.80;;;;;;;20.83;38.37;99493.91;4980064;28;20282;-81
2021/05/27 07:42:53;;;;;;;1.03;0.93;;;;;;;20.39;38.84;99486.75;4997662;28;20299;-81
2021/05/27 07:45:20;;;;;;;1.70;0.40;;;;;;;19.71;40.36;99485.94;4999746;28;20234;-82
2021/05/27 07:47:47;;;;;;;0.83;0.40;;;;;;;19.82;40.12;99482.06;5016323;28;20256;-82
2021/05/27 07:50:14;;;;;;;1.53;0.50;;;;;;;19.68;41.03;99491.94;4979842;28;20233;-82
2021/05/27 07:52:40;;;;;;;0.40;0.40;;;;;;;19.54;40.49;99470.03;4980300;28;20227;-82
2021/05/27 07:55:09;;;;;;;1.37;0.40;;;;;;;19.72;40.44;99480.22;5006971;28;20623;-84
2021/05/27 07:57:36;;;;;;;1.73;0.50;;;;;;;19.78;41.14;99486.44;4980295;28;20573;-83
2021/05/27 08:00:05;;;;;;;2.47;0.60;;;;;;;19.71;42.15;99492.19;5012492;28;20249;-83
2021/05/27 08:02:38;;;;;;;0.80;0.40;;;;;;;19.60;41.69;99495.25;5000601;28;20660;-83
2021/05/27 08:05:06;;;;;;;0.70;0.40;;;;;;;19.47;40.65;99474.94;4982858;28;20239;-79
2021/05/27 08:07:32;;;;;;;0.67;0.40;;;;;;;19.38;40.91;99489.38;4996272;28;20697;-82
2021/05/27 08:10:00;;;;;;;0.60;0.50;;;;;;;18.91;41.58;99488.78;5000453;28;20318;-84
2021/05/27 08:12:27;;;;;;;1.30;0.47;;;;;;;18.97;42.03;99477.91;4963760;28;20648;-83
2021/05/27 08:14:53;;;;;;;0.67;0.40;;;;;;;18.95;42.10;99497.19;4978027;28;20719;-81
2021/05/27 08:17:20;;;;;;;1.27;0.43;;;;;;;18.84;41.83;99487.47;4976626;28;20247;-81
2021/05/27 08:19:47;;;;;;;1.17;0.50;;;;;;;18.78;42.25;99500.22;5005418;28;20309;-83
2021/05/27 08:22:16;;;;;;;1.27;0.40;;;;;;;18.62;42.50;99497.81;4998406;28;20239;-81
2021/05/27 08:24:44;;;;;;;0.47;0.40;;;;;;;18.56;42.85;99488.91;4988473;28;20231;-80
2021/05/27 08:27:10;;;;;;;1.17;0.40;;;;;;;18.64;42.72;99504.63;4979466;28;20223;-82
2021/05/27 08:29:37;;;;;;;1.67;0.50;;;;;;;18.34;43.13;99505.44;4998489;28;20234;-81
2021/05/27 08:32:07;;;;;;;0.47;0.47;;;;;;;18.34;42.27;99519.00;4998214;28;20226;-79
2021/05/27 08:34:34;;;;;;;2.37;0.40;;;;;;;18.35;42.37;99506.25;5005485;28;20224;-82
2021/05/27 08:37:01;;;;;;;0.53;0.40;;;;;;;18.70;41.73;99505.41;4963118;28;20259;-80
2021/05/27 08:39:30;;;;;;;0.60;0.50;;;;;;;18.63;42.00;99510.31;4986794;28;20378;-83
2021/05/27 08:41:57;;;;;;;3.50;0.40;;;;;;;19.12;41.17;99526.72;4998021;28;20623;-82
2021/05/27 08:44:24;;;;;;;1.17;0.40;;;;;;;18.92;42.17;99509.41;4964481;28;20231;-80
2021/05/27 08:46:51;;;;;;;2.93;0.50;;;;;;;19.05;41.71;99508.00;4978263;28;20247;-80
2021/05/27 08:49:18;;;;;;;1.70;0.50;;;;;;;18.98;42.32;99509.41;4986001;28;20226;-79
2021/05/27 08:51:45;;;;;;;0.30;0.30;;;;;;;18.93;42.38;99512.94;5020542;28;20230;-80
2021/05/27 08:54:11;;;;;;;0.40;0.40;;;;;;;18.80;43.02;99516.25;4999811;28;20227;-82
2021/05/27 08:56:38;;;;;;;1.13;0.73;;;;;;;18.87;43.64;99514.88;4998494;28;20226;-79
2021/05/27 08:59:05;;;;;;;1.80;0.60;;;;;;;19.04;44.73;99527.28;4983265;28;20235;-80
2021/05/27 09:01:32;;;;;;;0.77;0.50;;;;;;;18.79;45.82;99515.44;5002091;28;20313;-82
2021/05/27 09:03:59;;;;;;;1.40;0.40;;;;;;;19.28;45.48;99514.69;5002196;28;20272;-82
2021/05/27 09:06:26;;;;;;;1.13;0.50;;;;;;;19.53;45.83;99503.72;4982290;28;20246;-81
2021/05/27 09:09:04;;;;;;;2.37;0.40;;;;;;;19.94;45.05;99530.63;5015514;28;20273;-82
2021/05/27 09:11:37;;;;;;;0.80;0.50;;;;;;;20.17;45.29;99521.75;5001090;28;20234;-82
2021/05/27 09:14:04;;;;;;;0.80;0.57;;;;;;;20.36;45.56;99522.69;5001302;28;20233;-79
2021/05/27 09:16:31;;;;;;;0.70;0.50;;;;;;;19.86;47.02;99521.19;4983201;28;20243;-80
2021/05/27 09:19:18;;;;;;;0.57;0.53;;;;;;;18.80;48.68;99529.81;4998259;28;20234;-81
2021/05/27 09:21:45;;;;;;;1.23;0.40;;;;;;;18.60;49.62;99519.00;4998596;28;20644;-83
2021/05/27 09:24:12;;;;;;;0.50;0.50;;;;;;;17.73;53.30;99518.16;4997922;28;20294;-82
2021/05/27 09:26:53;;;;;;;1.13;0.50;;;;;;;17.53;55.12;99527.06;4999790;28;20234;-82
2021/05/27 09:29:20;;;;;;;0.77;0.50;;;;;;;17.89;52.65;99538.78;5001524;28;20234;-82
2021/05/27 09:32:15;;;;;;;0.80;0.60;;;;;;;17.58;53.24;99534.38;4998992;28;20560;-82
2021/05/27 09:34:46;;;;;;;0.93;0.70;;;;;;;18.06;53.50;99538.53;4982550;28;20227;-85
2021/05/27 09:37:30;;;;;;;0.97;0.67;;;;;;;18.10;54.10;99530.69;5017466;28;20232;-83
2021/05/27 09:39:59;;;;;;;1.70;0.83;;;;;;;17.93;55.01;99531.75;5011469;28;20245;-83
2021/05/27 09:42:26;;;;;;;1.00;0.80;;;;;;;18.29;54.09;99532.56;4974698;28;20235;-84
2021/05/27 09:44:53;;;;;;;0.70;0.70;;;;;;;18.96;53.43;99538.72;4977552;28;20302;-80
2021/05/27 09:47:34;;;;;;;0.80;0.63;;;;;;;19.11;51.97;99544.09;5014070;28;20259;-82
2021/05/27 09:50:04;;;;;;;0.60;0.60;;;;;;;18.99;51.64;99547.13;4995881;28;20237;-82
2021/05/27 09:52:39;;;;;;;0.70;0.70;;;;;;;18.85;51.09;99538.75;4977968;28;20220;-81
2021/05/27 09:55:16;;;;;;;2.37;0.90;;;;;;;18.59;51.60;99547.22;4976234;28;20282;-81
2021/05/27 09:57:44;;;;;;;0.73;0.60;;;;;;;18.55;51.63;99544.25;4995536;28;20234;-84
2021/05/27 10:00:25;;;;;;;1.20;0.60;;;;;;;19.12;51.08;99546.56;4995364;28;20243;-83
2021/05/27 10:02:53;;;;;;;0.70;0.70;;;;;;;18.81;51.27;99534.13;4978183;28;20239;-81
2021/05/27 10:05:20;;;;;;;0.83;0.60;;;;;;;19.36;50.56;99535.84;4996177;28;20227;-81
2021/05/27 10:07:49;;;;;;;1.37;0.90;;;;;;;19.54;50.14;99529.81;4997692;28;20231;-81
2021/05/27 10:10:36;;;;;;;0.93;0.90;;;;;;;19.12;49.07;99543.03;4986151;28;20686;-82
2021/05/27 10:13:03;;;;;;;1.53;1.00;;;;;;;19.06;49.89;99536.78;5013668;28;20573;-82
2021/05/27 10:15:29;;;;;;;1.10;1.00;;;;;;;19.05;50.14;99537.06;5005379;28;20223;-80
2021/05/27 10:18:03;;;;;;;1.33;0.90;;;;;;;18.75;50.26;99543.41;4976640;28;20215;-81
2021/05/27 10:20:32;;;;;;;2.40;0.80;;;;;;;19.14;50.86;99541.63;4978245;28;20230;-81
2021/05/27 10:22:59;;;;;;;0.97;0.80;;;;;;;18.73;52.92;99540.13;4960476;28;20500;-81
2021/05/27 10:25:27;;;;;;;1.47;0.80;;;;;;;18.35;54.05;99542.31;4976794;28;20223;-80
2021/05/27 10:27:56;;;;;;;1.73;0.90;;;;;;;19.21;51.97;99536.75;4994159;28;20227;-82
2021/05/27 10:30:24;;;;;;;1.23;1.00;;;;;;;19.45;51.06;99545.06;4976502;28;20386;-82
2021/05/27 10:32:56;;;;;;;0.80;0.70;;;;;;;20.36;48.35;99538.19;4993959;28;20242;-82
2021/05/27 10:35:23;;;;;;;2.03;0.80;;;;;;;20.12;48.31;99529.94;4974452;28;20220;-83
2021/05/27 10:37:51;;;;;;;1.07;1.00;;;;;;;19.84;48.40;99542.38;4976736;28;20290;-83
2021/05/27 10:40:17;;;;;;;0.83;0.83;;;;;;;20.39;48.65;99540.38;4991871;28;20239;-80
2021/05/27 10:42:57;;;;;;;1.20;0.77;;;;;;;20.77;45.95;99533.97;4995125;28;20224;-82
2021/05/27 10:45:25;;;;;;;0.90;0.83;;;;;;;21.04;46.46;99531.50;4977845;28;20231;-83
2021/05/27 10:48:11;;;;;;;1.30;0.90;;;;;;;20.75;46.46;99536.19;4994750;28;20235;-81
2021/05/27 10:53:40;;;;;;;1.17;1.03;;;;;;;20.57;46.73;99532.31;4975398;28;20714;-81
2021/05/27 10:56:11;;;;;;;1.17;0.80;;;;;;;20.33;46.26;99534.16;4991913;28;20220;-81
2021/05/27 10:58:48;;;;;;;2.00;0.97;;;;;;;20.66;46.34;99532.50;4997077;28;20293;-82
2021/05/27 11:01:36;;;;;;;1.07;0.90;;;;;;;20.38;46.99;99533.31;5012480;28;20227;-81
2021/05/27 11:04:07;;;;;;;1.80;1.00;;;;;;;20.16;47.61;99533.72;4987332;28;20276;-82
2021/05/27 11:06:38;;;;;;;1.57;0.93;;;;;;;20.39;47.98;99529.50;4997380;28;20223;-82
2021/05/27 11:09:08;;;;;;;1.20;1.10;;;;;;;20.41;47.81;99527.28;5013435;28;20227;-81
2021/05/27 11:11:41;;;;;;;1.57;1.00;;;;;;;20.48;48.04;99525.06;5014007;28;20235;-81
2021/05/27 11:14:25;;;;;;;1.40;0.90;;;;;;;20.36;47.51;99524.59;5012985;28;20687;-81
2021/05/27 11:17:08;;;;;;;0.93;0.83;;;;;;;20.27;45.76;99527.09;5001990;28;20219;-81
2021/05/27 11:25:08;;;;;;;0.83;0.80;;;;;;;21.23;43.01;99534.28;5013260;28;20231;-80
2021/05/27 11:27:42;;;;;;;1.93;0.70;;;;;;;21.30;42.08;99531.22;5007344;28;20227;-81
2021/05/27 11:30:41;;;;;;;1.27;0.70;;;;;;;21.70;41.86;99529.84;4999907;28;20237;-80
2021/05/27 11:33:14;;;;;;;1.13;0.70;;;;;;;21.68;41.37;99537.53;5002806;28;20228;-79
2021/05/27 11:35:50;;;;;;;1.23;0.83;;;;;;;20.61;43.98;99529.81;4996814;28;20223;-81
2021/05/27 11:38:22;;;;;;;1.30;0.80;;;;;;;19.87;45.20;99527.44;5010014;28;20234;-81
2021/05/27 11:40:51;;;;;;;0.73;0.70;;;;;;;19.57;45.16;99520.28;5016082;28;20234;-81
2021/05/27 11:43:25;;;;;;;0.60;0.60;;;;;;;18.55;43.00;99525.25;5012570;28;20634;-81
2021/05/27 11:45:53;;;;;;;1.30;0.57;;;;;;;18.74;43.22;99528.19;4999879;28;20230;-82
2021/05/27 11:51:04;;;;;;;0.50;0.50;;;;;;;18.44;46.74;99534.44;4997623;28;20599;-82
2021/05/27 11:53:50;;;;;;;0.60;0.60;;;;;;;17.99;48.10;99527.97;5011157;28;20234;-82
2021/05/27 11:56:37;;;;;;;0.63;0.63;;;;;;;18.60;48.66;99538.81;4997849;28;20281;-80
2021/05/27 11:59:20;;;;;;;1.00;0.90;;;;;;;18.42;49.86;99539.34;5014467;28;20288;-83
2021/05/27 12:01:52;;;;;;;0.77;0.70;;;;;;;18.29;51.34;99535.28;5016116;28;20577;-81
2021/05/27 12:04:28;;;;;;;1.53;0.80;;;;;;;18.56;49.13;99528.78;4980463;28;20227;-83
2021/05/27 12:06:54;;;;;;;1.00;0.90;;;;;;;18.72;49.44;99519.50;4980193;28;20238;-82
2021/05/27 12:09:30;;;;;;;1.40;1.03;;;;;;;18.32;49.03;99521.19;5014102;28;20313;-80
2021/05/27 12:12:09;;;;;;;1.40;1.00;;;;;;;18.39;48.68;99532.56;4999878;28;20253;-81
2021/05/27 12:14:41;;;;;;;0.97;0.93;;;;;;;18.20;50.32;99534.19;4976257;28;20307;-80